Tiempo atmosférico en la estación meteorológica de Arenys De Mar, Barcelona (50 m.)



Fecha
DESCASC
Temp. máxima en grados centígrados (hora)
DESCASC
Temp. mínima en grados centígrados (hora)
DESCASC
Temp. media en grados centígrados
DESCASC
Racha de viento máxima en m/sg (hora)
DESCASC
Velocidad máxima media en intervalos de 10 minutos(hora)
DESCASC
Precipitaciones diarias en mm
DESCASC
Precipitaciones de 00:00 a 06:00 en mm
DESCASC
Precipitaciones de 06:00 a 12:00 en mm
DESCASC
Precipitaciones de 12:00 a 18:00 en mm
DESCASC
Precipitaciones de 18:00 a 24:00 en mm
DESCASC
05-04-2020 18.9 (14:30) 7 (07:20) 12.9 5.56 (17:10) 2.78 (04:20) 0 0 0 0 0
04-04-2020 18.2 (11:10) 7.4 (07:50) 12.8 6.11 (17:10) 2.78 (17:00) 0 0 0 0 0
03-04-2020 18.2 (16:10) 6.5 (07:10) 12.4 7.78 (15:20) 3.61 (15:10) 0 0 0 0 0
02-04-2020 15.7 (15:10) 9.2 (00:00) 12.4 11.94 (12:00) 5.28 (03:40) 0 0 0 0 0
01-04-2020 12.3 (00:20) 9.4 (00:00) 10.8 8.33 (10:20) 3.33 (12:00) 8.3 0.6 2.5 2.2 3
31-03-2020 13.3 (13:10) 8.3 (00:00) 10.8 7.5 (20:30) 3.61 (20:50) 0.6 0 0 0.1 0.5
30-03-2020 13.1 (02:00) 8.3 (00:00) 10.7 5.28 (02:30) 2.78 (10:20) 2.6 0 0.8 1.7 0.1
29-03-2020 19.3 (11:10) 7.7 (00:00) 13.5 3.89 (05:40) 1.94 (05:40) 1 0 0 0 1
28-03-2020 19 (12:30) 8.7 (00:00) 13.8 5 (12:40) 2.5 (02:30) 0 0 0 0 0
27-03-2020 14.9 (15:10) 2.8 (00:00) 8.8 5 (20:50) 2.78 (06:30) 0.5 0 0 0.4 0.1
26-03-2020 11.3 (10:10) 3.5 (00:00) 7.4 9.72 (12:00) 4.72 (15:20) 3.1 0 0 3.1 0
25-03-2020 16.1 (10:50) 6.6 (00:00) 11.4 5.56 (03:20) 2.78 (05:40) 0.1 0 0 0 0.1
24-03-2020 16 (13:10) 9.2 (00:00) 12.6 8.61 (15:10) 2.22 (00:40) 0.1 0 0 0.1 0
23-03-2020 17.8 (14:00) 11.2 (00:00) 14.5 8.61 (17:40) 3.06 (17:40) 21.4 5.9 11.8 0 3.7
22-03-2020 19 (11:00) 9.6 (06:40) 14.3 6.67 (14:20) 1.94 (07:20) 1 0 0 0 1
21-03-2020 20.2 (13:20) 7.3 (00:00) 13.8 7.22 (14:10) 2.78 (01:10) 0 0 0 0 0
20-03-2020 18.5 (13:30) 6.8 (00:00) 12.7 5.83 (13:40) 2.5 (21:00) 0 0 0 0 0
19-03-2020 16.9 (11:30) 7.6 (00:00) 12.2 4.17 (13:50) 1.94 (22:00) 0 0 0 0 0
18-03-2020 18.5 (12:30) 8.8 (00:00) 13.7 3.89 (12:50) 2.22 (05:10) 0 0 0 0 0
17-03-2020 16.7 (15:40) 10.6 (00:00) 13.7 10.83 (04:20) 4.44 (00:10) 0 0 0 0 0
16-03-2020 14 (10:30) 11.4 (00:00) 12.7 9.72 (22:10) 4.72 (23:59) 13.3 0 0.8 11.2 1.3
15-03-2020 18 (12:30) 8.9 (00:00) 13.4 6.67 (14:20) 3.06 (15:40) 0 0 0 0 0
14-03-2020 14.6 (09:30) 10.8 (00:00) 12.7 3.06 (02:00) 1.67 (01:40) 0 0 0 0 0
13-03-2020 18.5 (12:10) 9.6 (04:40) 14.1 6.67 (12:50) 3.06 (12:30) 0 0 0 0 0
12-03-2020 19.7 (13:40) 9.1 (00:00) 14.4 5.28 (17:00) 2.22 (12:30) 0 0 0 0 0
11-03-2020 18.6 (13:10) 7.9 (00:00) 13.3 4.72 (04:20) 2.5 (04:30) 0 0 0 0 0
10-03-2020 17 (11:50) 8.4 (00:00) 12.7 8.33 (13:50) 3.89 (14:30) 0 0 0 0 0

Gráficas

Temp. máximas Temp. mínimas Temp. medias Precipitaciones Rachas de viento máximas Velocidades máximas media en intervalos de 10 minutos

Datos horarios

Fecha y hora oficial Temperatura (ºC) Velocidad del viento (km/h) Dirección del viento Racha (km/h) Dirección de racha Precipitación (mm) Presión (hPa) Tendencia (hPa) Humedad (%)
2020-04-08 23:00:00 12.8 2 Norte 6 Noroeste 0 -- -- 76
2020-04-08 22:00:00 13.3 0 Calma 5 Noroeste 0 -- -- 74
2020-04-08 21:00:00 13.7 0 Calma 6 Sur 0 -- -- 76
2020-04-08 20:00:00 14.7 3 Sur 9 Sur 0 -- -- 65
2020-04-08 19:00:00 16.4 4 Sudeste 9 Sur 0 -- -- 52
2020-04-08 18:00:00 16.5 3 Sudeste 12 Sudoeste 0 -- -- 51
2020-04-08 17:00:00 18.2 6 Sur 13 Sur 0 -- -- 43
2020-04-08 16:00:00 18 6 Sur 16 Sur 0 -- -- 47
2020-04-08 15:00:00 18.7 5 Sudeste 16 Sudeste 0 -- -- 48
2020-04-08 14:00:00 18.8 6 Sur 15 Sur 0 -- -- 40
2020-04-08 13:00:00 18.7 6 Sudeste 15 Nordeste 0 -- -- 41
2020-04-08 12:00:00 18.4 5 Sur 15 Sur 0 -- -- 40
2020-04-08 11:00:00 18.5 6 Sur 15 Sur 0 -- -- 41
2020-04-08 10:00:00 17.3 4 Sur 9 Sudeste 0 -- -- 48
2020-04-08 09:00:00 11.3 4 Norte 7 Norte 0 -- -- 70
2020-04-08 08:00:00 11.2 3 Norte 6 Norte 0 -- -- 67
2020-04-08 07:00:00 11.6 0 Calma 5 Norte 0 -- -- 68
2020-04-08 06:00:00 11.8 0 Calma 7 Norte 0 -- -- 70
2020-04-08 05:00:00 11.3 3 Nordeste 6 Nordeste 0 -- -- 84
2020-04-08 04:00:00 12 3 Norte 5 Norte 0 -- -- 84
2020-04-08 03:00:00 13 0 Calma 7 Sudoeste 0 -- -- 81
2020-04-08 02:00:00 12.4 0 Calma 4 Norte 0 -- -- 83
2020-04-08 01:00:00 11.7 3 Norte 9 Norte 0 -- -- 79
2020-04-08 00:00:00 11.3 4 Norte 7 Norte 0 -- -- 77
2020-04-07 23:00:00 11.8 4 Norte 8 Norte 0 -- -- 68
2020-04-07 22:00:00 12.2 0 Calma 5 Norte 0 -- -- 69
2020-04-07 21:00:00 13.5 0 Calma 9 Sur 0 -- -- 69
2020-04-07 20:00:00 15.1 4 Sudoeste 12 Sur 0 -- -- 57
2020-04-07 19:00:00 15.3 6 Sudoeste 17 Sur 0 -- -- 63
2020-04-07 18:00:00 15.9 8 Sur 17 Sur 0 -- -- 65
2020-04-07 17:00:00 17.7 7 Sur 17 Sur 0 -- -- 60
2020-04-07 16:00:00 17.2 6 Sur 16 Sudoeste 0 -- -- 45
2020-04-07 15:00:00 17.8 7 Sur 18 Sur 0 -- -- 50
2020-04-07 14:00:00 16.8 6 Sur 15 Sudoeste 0 -- -- 59
2020-04-07 13:00:00 16 5 Sur 11 Sudeste 0 -- -- 66
2020-04-07 12:00:00 17.6 4 Sudeste 12 Sudeste 0 -- -- 60
2020-04-07 11:00:00 16.6 4 Sudeste 14 Sudeste 0 -- -- 59
2020-04-07 10:00:00 15.1 3 Sur 7 Sudeste 0 -- -- 65
2020-04-07 09:00:00 14 0 Calma 2 Norte 0 -- -- 74
2020-04-07 08:00:00 11 0 Calma 5 Nordeste 0 -- -- 87
2020-04-07 07:00:00 9.7 4 Norte 8 Norte 0 -- -- 88
2020-04-07 06:00:00 10 4 Norte 7 Norte 0 -- -- 85
2020-04-07 05:00:00 10.9 2 Norte 8 Oeste 0 -- -- 79
2020-04-07 04:00:00 12.4 2 Noroeste 8 Sudoeste 0 -- -- 67
2020-04-07 03:00:00 10.6 0 Calma 8 Norte 0 -- -- 70
2020-04-07 02:00:00 10.4 4 Norte 8 Norte 0 -- -- 68
2020-04-07 01:00:00 10.4 4 Norte 8 Norte 0 -- -- 62
2020-04-07 00:00:00 10.4 5 Norte 8 Norte 0 -- -- 64
2020-04-06 23:00:00 11 5 Norte 8 Norte 0 -- -- 69
2020-04-06 22:00:00 11.2 4 Norte 6 Norte 0 -- -- 81
2020-04-06 21:00:00 12.6 2 Noroeste 5 Noroeste 0 -- -- 84
2020-04-06 20:00:00 13.7 2 Sudoeste 10 Sur 0 -- -- 80
2020-04-06 19:00:00 14.8 6 Sur 16 Sur 0 -- -- 72
2020-04-06 18:00:00 16.7 5 Sur 17 Sur 0 -- -- 64
2020-04-06 17:00:00 16.9 7 Sur 15 Sur 0 -- -- 60
2020-04-06 16:00:00 17.6 6 Sur 13 Sudoeste 0 -- -- 55
2020-04-06 15:00:00 17.4 7 Sur 15 Sur 0 -- -- 56
2020-04-06 14:00:00 17.2 6 Sudeste 17 Sudeste 0 -- -- 55
2020-04-06 13:00:00 17.5 6 Sur 16 Sur 0 -- -- 51
2020-04-06 12:00:00 17 7 Sudeste 15 Sudoeste 0 -- -- 51
2020-04-06 11:00:00 17.2 5 Sur 11 Sur 0 -- -- 48
2020-04-06 10:00:00 14.7 2 Sudeste 6 Sudeste 0 -- -- 54
2020-04-06 09:00:00 11.7 0 Calma 9 Nordeste 0 -- -- 67
2020-04-06 08:00:00 8.9 4 Norte 8 Nordeste 0 -- -- 72
2020-04-06 07:00:00 9.1 5 Norte 9 Norte 0 -- -- 71
2020-04-06 06:00:00 9 4 Norte 9 Norte 0 -- -- 67
2020-04-06 05:00:00 8.3 5 Norte 8 Norte 0 -- -- 66
2020-04-06 04:00:00 8.8 5 Norte 11 Norte 0 -- -- 66
2020-04-06 03:00:00 9.4 5 Norte 13 Norte 0 -- -- 68
2020-04-06 02:00:00 8.5 5 Norte 9 Nordeste 0 -- -- 74
2020-04-06 01:00:00 8.1 5 Norte 10 Norte 0 -- -- 75
2020-04-06 00:00:00 8.4 5 Norte 10 Norte 0 -- -- 75
2020-04-05 23:00:00 8.7 4 Norte 8 Norte 0 -- -- 74
2020-04-05 22:00:00 10 4 Norte 7 Norte 0 -- -- 73
2020-04-05 21:00:00 11.7 0 Calma 9 Sudoeste 0 -- -- 80
2020-04-05 20:00:00 13.3 5 Sudoeste 14 Oeste 0 -- -- 73
2020-04-05 19:00:00 14.8 8 Sur 19 Sur 0 -- -- 56
2020-04-05 18:00:00 16.6 7 Sur 20 Sur 0 -- -- 44
2020-04-05 17:00:00 17.5 6 Sudoeste 19 Sur 0 -- -- 43
2020-04-05 16:00:00 18 6 Sudoeste 19 Sur 0 -- -- 42
2020-04-05 15:00:00 17.5 10 Sur 19 Sudoeste 0 -- -- 36
2020-04-05 14:00:00 18.6 5 Sur 16 Sur 0 -- -- 39
2020-04-05 13:00:00 17.5 7 Sur 15 Sur 0 -- -- 40
2020-04-05 12:00:00 17.2 4 Sur 12 Sur 0 -- -- 46
2020-04-05 11:00:00 16.2 4 Sur 10 Sur 0 -- -- 43
2020-04-05 10:00:00 14.8 0 Calma 6 Sudeste 0 -- -- 53
2020-04-05 09:00:00 10 0 Calma 8 Norte 0 -- -- 67
2020-04-05 08:00:00 7.6 5 Norte 9 Norte 0 -- -- 66
2020-04-05 07:00:00 7.6 5 Norte 11 Norte 0 -- -- 64
2020-04-05 06:00:00 7.9 4 Norte 12 Sudoeste 0 -- -- 63
2020-04-05 05:00:00 10.6 9 Sudoeste 16 Sudoeste 0 -- -- 53
2020-04-05 04:00:00 11.3 8 Sudoeste 15 Noroeste 0 -- -- 52
2020-04-05 03:00:00 8.1 3 Noroeste 10 Norte 0 -- -- 79
2020-04-05 02:00:00 8.3 4 Norte 10 Norte 0 -- -- 79
2020-04-05 01:00:00 8.3 3 Norte 7 Norte 0 -- -- 79
2020-04-05 00:00:00 8.7 3 Norte 8 Norte 0 -- -- 75
2020-04-04 23:00:00 9.2 3 Norte 5 Norte 0 -- -- 90
2020-04-04 22:00:00 10.1 0 Calma 4 Norte 0 -- -- 87
2020-04-04 21:00:00 11.7 0 Calma 8 Sudoeste 0 -- -- 82
2020-04-04 20:00:00 13.2 5 Sudoeste 16 Sudoeste 0 -- -- 70
2020-04-04 19:00:00 15.3 6 Sudoeste 21 Sudoeste 0 -- -- 57
2020-04-04 18:00:00 16.3 6 Sudoeste 22 Sur 0 -- -- 55
2020-04-04 17:00:00 16.5 10 Sur 21 Sur 0 -- -- 58
2020-04-04 16:00:00 16.8 9 Sur 18 Sur 0 -- -- 50
2020-04-04 15:00:00 17.1 6 Sur 16 Nordeste 0 -- -- 53
2020-04-04 14:00:00 16 6 Sur 13 Sur 0 -- -- 50
2020-04-04 13:00:00 16.5 3 Sudeste 14 Sur 0 -- -- 46
2020-04-04 12:00:00 16.4 5 Sudeste 13 Sudeste 0 -- -- 42
2020-04-04 11:00:00 16.9 4 Sudeste 12 Sudeste 0 -- -- 44
2020-04-04 10:00:00 16.1 3 Sudeste 9 Sudeste 0 -- -- 51
2020-04-04 09:00:00 10.1 2 Norte 7 Norte 0 -- -- 81
2020-04-04 08:00:00 7.9 0 Calma 7 Norte 0 -- -- 87
2020-04-04 07:00:00 9.2 4 Norte 15 Nordeste 0 -- -- 75
2020-04-04 06:00:00 8.7 4 Norte 10 Norte 0 -- -- 79
2020-04-04 05:00:00 8.1 4 Norte 8 Norte 0 -- -- 82
2020-04-04 04:00:00 8.5 0 Calma 9 Norte 0 -- -- 80
2020-04-04 03:00:00 7.9 0 Calma 7 Norte 0 -- -- 83
2020-04-04 02:00:00 8.4 3 Noroeste 8 Oeste 0 -- -- 79
2020-04-04 01:00:00 8.7 3 Norte 7 Oeste 0 -- -- 83
2020-04-04 00:00:00 9.6 3 Oeste 7 Sudoeste 0 -- -- 80
2020-04-03 23:00:00 10.8 0 Calma 8 Sudoeste 0 -- -- 76
2020-04-03 22:00:00 11.7 3 Oeste 6 Oeste 0 -- -- 76
2020-04-03 21:00:00 11.5 0 Calma 10 Sudoeste 0 -- -- 74
2020-04-03 20:00:00 12.7 6 Sur 18 Sudoeste 0 -- -- 63
2020-04-03 19:00:00 14.1 10 Sur 24 Sur 0 -- -- 55
2020-04-03 18:00:00 14.9 12 Sur 25 Sur 0 -- -- 56
2020-04-03 17:00:00 14.2 11 Sur 23 Sur 0 -- -- 51
2020-04-03 16:00:00 17.6 7 Sur 28 Sur 0 -- -- 41
2020-04-03 15:00:00 16 12 Sur 26 Sur 0 -- -- 44
2020-04-03 14:00:00 17.5 7 Sur 23 Sudoeste 0 -- -- 44
2020-04-03 13:00:00 17 8 Sur 20 Sur 0 -- -- 45
2020-04-03 12:00:00 15.3 8 Sur 16 Sur 0 -- -- 47
2020-04-03 11:00:00 16.1 6 Sur 14 Sur 0 -- -- 50
2020-04-03 10:00:00 15.2 3 Sudoeste 10 Sudoeste 0 -- -- 57
2020-04-03 09:00:00 9.1 4 Nordeste 13 Norte 0 -- -- 81
2020-04-03 08:00:00 6.8 4 Norte 13 Norte 0 -- -- 87
2020-04-03 07:00:00 6.7 4 Norte 11 Norte 0 -- -- 87
2020-04-03 06:00:00 6.9 5 Norte 11 Norte 0 -- -- 87
2020-04-03 05:00:00 7.1 4 Norte 9 Norte 0 -- -- 85
2020-04-03 04:00:00 7.4 4 Norte 10 Norte 0 -- -- 83
2020-04-03 03:00:00 8.3 5 Norte 13 Norte 0 -- -- 78
2020-04-03 02:00:00 8.6 8 Norte 16 Norte 0 -- -- 75
2020-04-03 01:00:00 9.3 4 Norte 15 Sudoeste 0 -- -- 69
2020-04-03 00:00:00 11.2 11 Noroeste 21 Norte 0 -- -- 60
2020-04-02 23:00:00 11.2 10 Norte 20 Norte 0 -- -- 60
2020-04-02 22:00:00 11.4 6 Nordeste 23 Norte 0 -- -- 59
2020-04-02 21:00:00 11.6 7 Norte 27 Norte 0 -- -- 57
2020-04-02 20:00:00 12 8 Norte 24 Norte 0 -- -- 55
2020-04-02 19:00:00 12.5 5 Nordeste 23 Nordeste 0 -- -- 52
2020-04-02 18:00:00 13.1 6 Nordeste 34 Norte 0 -- -- 49
2020-04-02 17:00:00 13.1 8 Norte 39 Norte 0 -- -- 48
2020-04-02 16:00:00 14.3 19 Norte 39 Norte 0 -- -- 46
2020-04-02 15:00:00 14.9 7 Nordeste 31 Nordeste 0 -- -- 45
2020-04-02 14:00:00 14.3 12 Nordeste 36 Norte 0 -- -- 45
2020-04-02 13:00:00 13.8 10 Norte 40 Norte 0 -- -- 46
2020-04-02 12:00:00 12.9 16 Norte 43 Norte 0 -- -- 48
2020-04-02 11:00:00 12.1 16 Norte 41 Noroeste 0 -- -- 52
2020-04-02 10:00:00 11.4 15 Norte 37 Nordeste 0 -- -- 61
2020-04-02 09:00:00 10.3 14 Norte 37 Norte 0 -- -- 65
2020-04-02 08:00:00 9.3 15 Norte 40 Nordeste 0 -- -- 74
2020-04-02 07:00:00 9.5 15 Norte 41 Norte 0 -- -- 75
2020-04-02 06:00:00 9.5 14 Norte 41 Norte 0 -- -- 74
2020-04-02 05:00:00 9.4 14 Norte 37 Norte 0 -- -- 72
2020-04-02 04:00:00 9.5 15 Norte 40 Norte 0 -- -- 70
2020-04-02 03:00:00 9.7 11 Norte 26 Nordeste 0 -- -- 72
2020-04-02 02:00:00 9.6 9 Nordeste 23 Nordeste 0 -- -- 74
2020-04-02 01:00:00 9.8 8 Norte 28 Nordeste 0 -- -- 78
2020-04-02 00:00:00 9.9 7 Nordeste 27 Norte 0 -- -- 80
2020-04-01 23:00:00 10 7 Nordeste 23 Norte 0 -- -- 84
2020-04-01 22:00:00 9.8 4 Nordeste 23 Norte 0.1 -- -- 87
2020-04-01 21:00:00 9.5 6 Nordeste 29 Nordeste 1.7 -- -- 91
2020-04-01 20:00:00 9.7 5 Nordeste 19 Norte 0.8 -- -- 91
2020-04-01 19:00:00 9.8 3 Nordeste 23 Nordeste 0.4 -- -- 90
2020-04-01 18:00:00 10.5 5 Norte 27 Nordeste 0.1 -- -- 87
2020-04-01 17:00:00 10.3 5 Nordeste 27 Norte 0.8 -- -- 88
2020-04-01 16:00:00 10.7 4 Nordeste 24 Nordeste 0.4 -- -- 87
2020-04-01 15:00:00 10.7 8 Nordeste 24 Este 0.1 -- -- 87
2020-04-01 14:00:00 11 5 Norte 29 Nordeste 0 -- -- 88
2020-04-01 13:00:00 10.6 9 Nordeste 25 Nordeste 0.8 -- -- 88
2020-04-01 12:00:00 10.3 12 Norte 27 Nordeste 1.7 -- -- 88
2020-04-01 11:00:00 10.8 10 Norte 30 Nordeste 0 -- -- 81
2020-04-01 10:00:00 10.4 10 Norte 27 Norte 0.4 -- -- 85
2020-04-01 09:00:00 10.7 9 Nordeste 28 Nordeste 0.1 -- -- 82
2020-04-01 08:00:00 10.4 8 Nordeste 27 Norte 0.2 -- -- 85
2020-04-01 07:00:00 10.7 6 Nordeste 27 Norte 0.1 -- -- 87
2020-04-01 06:00:00 10.8 5 Nordeste 28 Norte 0.6 -- -- 89
2020-04-01 05:00:00 11.5 7 Nordeste 28 Nordeste 0 -- -- 84
2020-04-01 04:00:00 11.4 8 Norte 24 Norte 0 -- -- 85
2020-04-01 03:00:00 11.5 8 Norte 23 Norte 0 -- -- 80
2020-04-01 02:00:00 11.9 8 Norte 25 Nordeste 0 -- -- 76
2020-04-01 01:00:00 12.2 9 Norte 26 Norte 0 -- -- 72
2020-04-01 00:00:00 12 12 Norte 26 Nordeste 0 -- -- 70
2020-03-31 23:00:00 11.6 11 Norte 26 Norte 0 -- -- 69
2020-03-31 22:00:00 11.1 13 Norte 25 Norte 0 -- -- 70
2020-03-31 21:00:00 10.6 13 Norte 27 Norte 0.1 -- -- 75
2020-03-31 20:00:00 10.3 11 Norte 24 Norte 0.4 -- -- 75
2020-03-31 19:00:00 11.7 4 Nordeste 26 Norte 0 -- -- 62
2020-03-31 18:00:00 11.8 9 Norte 22 Norte 0 -- -- 64
2020-03-31 17:00:00 12.4 3 Nordeste 23 Norte 0.1 -- -- 61
2020-03-31 16:00:00 12.8 8 Norte 24 Nordeste 0 -- -- 55
2020-03-31 15:00:00 13.1 5 Nordeste 22 Nordeste 0 -- -- 52
2020-03-31 14:00:00 12.8 4 Nordeste 17 Nordeste 0 -- -- 52
2020-03-31 13:00:00 12.8 6 Nordeste 19 Nordeste 0 -- -- 52
2020-03-31 12:00:00 12.1 9 Norte 21 Norte 0 -- -- 53
2020-03-31 11:00:00 10.9 9 Norte 23 Norte 0 -- -- 56
2020-03-31 10:00:00 10.3 6 Norte 17 Norte 0 -- -- 57
2020-03-31 09:00:00 10.1 7 Norte 14 Nordeste 0 -- -- 59
2020-03-31 08:00:00 8.7 4 Nordeste 14 Norte 0 -- -- 62
2020-03-31 07:00:00 9.3 5 Nordeste 17 Nordeste 0 -- -- 57
2020-03-31 06:00:00 9.5 9 Norte 21 Norte 0 -- -- 55
2020-03-31 05:00:00 9.6 9 Norte 19 Nordeste 0 -- -- 54
2020-03-31 04:00:00 9 4 Norte 9 Norte 0 -- -- 74
2020-03-31 03:00:00 8.7 6 Norte 10 Norte 0 -- -- 78
2020-03-31 02:00:00 8.6 2 Norte 4 Norte 0 -- -- 88
2020-03-31 01:00:00 8.8 0 Calma 5 Norte 0 -- -- 87
2020-03-31 00:00:00 8.6 2 Norte 8 Sudoeste 0 -- -- 86
2020-03-30 23:00:00 8.4 5 Norte 7 Noroeste 0 -- -- 87
2020-03-30 22:00:00 8.4 0 Calma 7 Norte 0 -- -- 88
2020-03-30 21:00:00 8.7 4 Norte 7 Noroeste 0 -- -- 89
2020-03-30 20:00:00 8.7 0 Calma 3 Norte 0 -- -- 88
2020-03-30 19:00:00 9.2 0 Calma 9 Noroeste 0.1 -- -- 84
2020-03-30 18:00:00 9.5 3 Norte 8 Norte 0 -- -- 74
2020-03-30 17:00:00 9.2 3 Norte 12 Sudoeste 0 -- -- 74
2020-03-30 16:00:00 9.2 6 Oeste 12 Sudoeste 0 -- -- 76
2020-03-30 15:00:00 9.9 4 Norte 11 Norte 0.6 -- -- 85
2020-03-30 14:00:00 9.2 3 Sudeste 9 Este 0.2 -- -- 86
2020-03-30 13:00:00 9.3 0 Calma 6 Sudeste 0.9 -- -- 87
2020-03-30 12:00:00 10.4 0 Calma 8 Este 0.2 -- -- 85
2020-03-30 11:00:00 10.5 0 Calma 18 Nordeste 0.6 -- -- 85
2020-03-30 10:00:00 10.8 9 Norte 19 Norte 0 -- -- 73
2020-03-30 09:00:00 10.4 0 Calma 5 Oeste 0 -- -- 78
2020-03-30 08:00:00 10.3 0 Calma 6 Nordeste 0 -- -- 74
2020-03-30 07:00:00 10.4 0 Calma 10 Sudeste 0 -- -- 72
2020-03-30 06:00:00 10.7 0 Calma 9 Sudeste 0 -- -- 72
2020-03-30 05:00:00 10.8 3 Este 13 Nordeste 0 -- -- 75
2020-03-30 04:00:00 11.2 3 Este 13 Este 0 -- -- 74
2020-03-30 03:00:00 11.7 2 Sudeste 19 Este 0 -- -- 78
2020-03-30 02:00:00 12.8 3 Este 15 Este 0 -- -- 86
2020-03-30 01:00:00 11.2 0 Calma 11 Norte 0 -- -- 83
2020-03-30 00:00:00 11.1 4 Norte 12 Norte 0.1 -- -- 85
2020-03-29 23:00:00 11.3 5 Norte 12 Norte 0.1 -- -- 85
2020-03-29 22:00:00 11.4 7 Norte 14 Noroeste 0.5 -- -- 85
2020-03-29 21:00:00 12.2 5 Norte 12 Noroeste 0.3 -- -- 84
2020-03-29 20:00:00 13.2 0 Calma 3 Oeste 0 -- -- 79
2020-03-29 19:00:00 13.8 2 Sur 10 Sur 0 -- -- 69
2020-03-29 18:00:00 14.1 2 Sudeste 6 Sur 0 -- -- 72
2020-03-29 17:00:00 15.2 3 Sudeste 9 Sudeste 0 -- -- 64
2020-03-29 16:00:00 15.6 2 Sudeste 11 Sur 0 -- -- 61
2020-03-29 15:00:00 16.7 5 Sur 12 Sudeste 0 -- -- 55
2020-03-29 14:00:00 16.7 5 Sudeste 13 Sudeste 0 -- -- 51
2020-03-29 13:00:00 17.6 4 Sur 11 Sudeste 0 -- -- 51
2020-03-29 12:00:00 16.9 4 Sudeste 12 Sudeste 0 -- -- 50
2020-03-29 11:00:00 18.4 0 Calma 8 Sudeste 0 -- -- 44
2020-03-29 10:00:00 15 3 Sur 6 Sur 0 -- -- 58
2020-03-29 09:00:00 10.6 4 Norte 9 Norte 0 -- -- 76
2020-03-29 08:00:00 8.1 3 Norte 8 Norte 0 -- -- 82
2020-03-29 07:00:00 8.5 4 Norte 9 Norte 0 -- -- 78
2020-03-29 06:00:00 8.8 5 Norte 14 Norte 0 -- -- 78
2020-03-29 05:00:00 8.8 5 Norte 10 Norte 0 -- -- 80
2020-03-29 03:00:00 9.6 5 Norte 10 Norte 0 -- -- 75
2020-03-29 01:00:00 9.2 4 Norte 10 Norte 0 -- -- 78
2020-03-29 00:00:00 8.7 3 Norte 6 Norte 0 -- -- 80
2020-03-28 23:00:00 9.6 0 Calma 6 Nordeste 0 -- -- 76
2020-03-28 22:00:00 9.4 3 Norte 9 Norte 0 -- -- 74
2020-03-28 21:00:00 9.9 4 Norte 8 Norte 0 -- -- 72
2020-03-28 20:00:00 11 0 Calma 8 Sur 0 -- -- 72
2020-03-28 19:00:00 13.1 6 Sur 15 Sudoeste 0 -- -- 59
2020-03-28 18:00:00 13.9 7 Sur 16 Sur 0 -- -- 55
2020-03-28 17:00:00 15.6 8 Sur 16 Sur 0 -- -- 49
2020-03-28 16:00:00 15.1 7 Sur 13 Sur 0 -- -- 48
2020-03-28 15:00:00 16.2 7 Sur 15 Sur 0 -- -- 42
2020-03-28 14:00:00 16.1 7 Sur 18 Sur 0 -- -- 44
2020-03-28 13:00:00 16.2 5 Este 18 Nordeste 0 -- -- 44
2020-03-28 12:00:00 17.4 6 Sudeste 17 Sudeste 0 -- -- 34
2020-03-28 11:00:00 16.7 2 Este 16 Nordeste 0 -- -- 33
2020-03-28 10:00:00 15.3 3 Este 13 Norte 0 -- -- 37
2020-03-28 09:00:00 14.3 4 Norte 10 Norte 0 -- -- 47
2020-03-28 08:00:00 10.7 6 Norte 13 Norte 0 -- -- 61
2020-03-28 07:00:00 9.5 6 Norte 13 Norte 0 -- -- 63
2020-03-28 06:00:00 9.4 4 Norte 8 Noroeste 0 -- -- 66
2020-03-28 05:00:00 9.7 4 Norte 10 Norte 0 -- -- 64
2020-03-28 04:00:00 9.9 6 Norte 13 Norte 0 -- -- 62
2020-03-28 03:00:00 9.7 5 Norte 14 Norte 0 -- -- 63
2020-03-28 02:00:00 10.2 8 Norte 14 Norte 0 -- -- 61
2020-03-28 01:00:00 9.5 4 Norte 12 Noroeste 0 -- -- 69
2020-03-28 00:00:00 9.5 6 Norte 11 Norte 0 -- -- 69
2020-03-27 23:00:00 8.8 0 Calma 9 Nordeste 0 -- -- 75
2020-03-27 22:00:00 9.4 2 Norte 12 Noroeste 0 -- -- 68
2020-03-27 21:00:00 9.9 8 Noroeste 18 Noroeste 0 -- -- 65
2020-03-27 20:00:00 8.9 0 Calma 5 Norte 0.1 -- -- 87
2020-03-27 19:00:00 9.5 0 Calma 11 Oeste 0 -- -- 83
2020-03-27 18:00:00 9.6 3 Oeste 8 Oeste 0.4 -- -- 79
2020-03-27 17:00:00 11.8 0 Calma 17 Norte 0 -- -- 45
2020-03-27 16:00:00 13 3 Este 12 Este 0 -- -- 38
2020-03-27 15:00:00 14.8 0 Calma 11 Nordeste 0 -- -- 41
2020-03-27 14:00:00 14.1 2 Este 15 Nordeste 0 -- -- 41
2020-03-27 13:00:00 14.6 3 Sudeste 10 Sudeste 0 -- -- 44
2020-03-27 12:00:00 12.3 3 Sur 6 Sudeste 0 -- -- 46
2020-03-27 11:00:00 11.7 2 Este 6 Nordeste 0 -- -- 51
2020-03-27 10:00:00 12.1 4 Sudeste 10 Nordeste 0 -- -- 49
2020-03-27 09:00:00 11.2 3 Norte 10 Nordeste 0 -- -- 40
2020-03-27 08:00:00 7.2 5 Norte 13 Norte 0 -- -- 53
2020-03-27 07:00:00 6.2 8 Norte 15 Norte 0 -- -- 52
2020-03-27 06:00:00 6.1 9 Norte 16 Norte 0 -- -- 54
2020-03-27 05:00:00 5 7 Norte 17 Norte 0 -- -- 63
2020-03-27 04:00:00 4.5 8 Norte 14 Norte 0 -- -- 70
2020-03-27 03:00:00 3.2 3 Norte 11 Norte 0 -- -- 81
2020-03-27 02:00:00 4.1 5 Norte 14 Nordeste 0 -- -- 77
2020-03-27 01:00:00 4.2 5 Norte 12 Norte 0 -- -- 81
2020-03-27 00:00:00 5 9 Norte 12 Norte 0 -- -- 76
2020-03-26 23:00:00 5.4 7 Norte 12 Norte 0 -- -- 75
2020-03-26 22:00:00 5.6 8 Norte 13 Norte 0 -- -- 73
2020-03-26 21:00:00 6.2 9 Norte 17 Norte 0 -- -- 70
2020-03-26 20:00:00 6.6 6 Norte 17 Norte 0 -- -- 72
2020-03-26 19:00:00 7.6 8 Norte 23 Norte 0 -- -- 66
2020-03-26 18:00:00 8.1 9 Norte 33 Norte 0 -- -- 65
2020-03-26 17:00:00 8.2 13 Norte 30 Nordeste 0.4 -- -- 74
2020-03-26 16:00:00 7 5 Nordeste 31 Norte 1.1 -- -- 83
2020-03-26 15:00:00 7.3 14 Norte 29 Norte 0.8 -- -- 80
2020-03-26 14:00:00 10.4 9 Norte 27 Norte 0.5 -- -- 63
2020-03-26 13:00:00 8.6 15 Norte 34 Norte 0.3 -- -- 69
2020-03-26 12:00:00 8.7 15 Norte 35 Norte 0 -- -- 60
2020-03-26 11:00:00 9.3 9 Norte 24 Norte 0 -- -- 60
2020-03-26 10:00:00 10.3 10 Norte 24 Norte 0 -- -- 53
2020-03-26 09:00:00 8.7 13 Norte 29 Norte 0 -- -- 57
2020-03-26 08:00:00 6.7 3 Norte 9 Noroeste 0 -- -- 73
2020-03-26 07:00:00 5 6 Norte 11 Norte 0 -- -- 77
2020-03-26 06:00:00 4.6 5 Norte 14 Norte 0 -- -- 76
2020-03-26 05:00:00 4 5 Norte 8 Norte 0 -- -- 85
2020-03-26 04:00:00 3.7 0 Calma 6 Sudoeste 0 -- -- 85
2020-03-26 03:00:00 4.3 0 Calma 6 Norte 0 -- -- 81
2020-03-26 02:00:00 5.5 0 Calma 14 Norte 0 -- -- 74
2020-03-26 01:00:00 5.5 2 Noroeste 11 Sudoeste 0 -- -- 74
2020-03-26 00:00:00 6.8 4 Oeste 12 Sudoeste 0 -- -- 66
2020-03-25 23:00:00 7.4 6 Sudoeste 11 Oeste 0 -- -- 65
2020-03-25 22:00:00 7.5 6 Sudoeste 11 Sudoeste 0 -- -- 66
2020-03-25 21:00:00 8.1 3 Noroeste 12 Noroeste 0 -- -- 65
2020-03-25 20:00:00 8.5 3 Oeste 8 Sudoeste 0 -- -- 70
2020-03-25 19:00:00 8.7 4 Sudoeste 8 Sur 0.1 -- -- 71
2020-03-25 18:00:00 9.2 0 Calma 7 Sur 0 -- -- 61
2020-03-25 17:00:00 10.1 3 Sur 10 Sur 0 -- -- 50
2020-03-25 16:00:00 10.5 5 Sur 10 Sur 0 -- -- 50
2020-03-25 15:00:00 10.9 4 Sudeste 13 Sur 0 -- -- 51
2020-03-25 14:00:00 11.2 5 Sudeste 15 Sudeste 0 -- -- 47
2020-03-25 13:00:00 11.9 4 Sudeste 18 Sudeste 0 -- -- 48
2020-03-25 12:00:00 11.8 2 Este 19 Este 0 -- -- 38
2020-03-25 11:00:00 13.2 3 Sudeste 15 Norte 0 -- -- 32
2020-03-25 10:00:00 11.7 2 Nordeste 17 Norte 0 -- -- 36
2020-03-25 09:00:00 10.6 8 Norte 18 Noroeste 0 -- -- 39
2020-03-25 08:00:00 9.1 6 Norte 15 Norte 0 -- -- 43
2020-03-25 07:00:00 8.4 8 Norte 14 Norte 0 -- -- 46
2020-03-25 06:00:00 8.7 9 Norte 18 Norte 0 -- -- 44
2020-03-25 05:00:00 8.7 8 Norte 18 Norte 0 -- -- 47
2020-03-25 04:00:00 8.7 7 Norte 20 Norte 0 -- -- 48
2020-03-25 03:00:00 9 8 Norte 18 Norte 0 -- -- 48
2020-03-25 02:00:00 9.3 6 Norte 18 Norte 0 -- -- 49
2020-03-25 01:00:00 9.2 7 Norte 18 Nordeste 0 -- -- 51
2020-03-25 00:00:00 9.3 6 Nordeste 16 Norte 0 -- -- 51
2020-03-24 23:00:00 9.3 7 Norte 14 Norte 0 -- -- 52
2020-03-24 22:00:00 9.6 7 Norte 16 Norte 0 -- -- 52
2020-03-24 21:00:00 9.7 7 Norte 17 Norte 0 -- -- 54
2020-03-24 20:00:00 9.8 5 Norte 16 Nordeste 0 -- -- 54
2020-03-24 19:00:00 10.4 4 Nordeste 19 Nordeste 0 -- -- 55
2020-03-24 18:00:00 10.9 4 Nordeste 22 Este 0 -- -- 55
2020-03-24 17:00:00 11.5 3 Nordeste 30 Nordeste 0 -- -- 55
2020-03-24 16:00:00 12.2 4 Este 31 Sudeste 0.1 -- -- 59
2020-03-24 15:00:00 13.3 4 Este 19 Este 0 -- -- 50
2020-03-24 14:00:00 13.1 6 Este 29 Este 0 -- -- 50
2020-03-24 13:00:00 14.8 4 Sudeste 25 Nordeste 0 -- -- 46
2020-03-24 12:00:00 14.7 5 Nordeste 24 Nordeste 0 -- -- 46
2020-03-24 11:00:00 14.6 4 Este 27 Nordeste 0 -- -- 47
2020-03-24 10:00:00 13.9 5 Nordeste 22 Nordeste 0 -- -- 50
2020-03-24 09:00:00 12 5 Nordeste 24 Norte 0 -- -- 56
2020-03-24 08:00:00 10.6 7 Norte 23 Norte 0 -- -- 67
2020-03-24 07:00:00 10.3 6 Nordeste 19 Nordeste 0 -- -- 69
2020-03-24 06:00:00 10.2 7 Norte 21 Nordeste 0 -- -- 72
2020-03-24 05:00:00 10.2 6 Nordeste 18 Norte 0 -- -- 75
2020-03-24 04:00:00 10.5 6 Nordeste 21 Nordeste 0 -- -- 75
2020-03-24 03:00:00 11.1 6 Norte 18 Norte 0 -- -- 74
2020-03-24 02:00:00 11 7 Norte 19 Norte 0 -- -- 73
2020-03-24 01:00:00 10.8 8 Norte 22 Norte 0 -- -- 75
2020-03-24 00:00:00 11.3 8 Norte 17 Norte 0 -- -- 77
2020-03-23 23:00:00 11.3 6 Norte 21 Nordeste 0 -- -- 80
2020-03-23 22:00:00 11.3 6 Norte 18 Nordeste 0 -- -- 83
2020-03-23 21:00:00 11.3 6 Nordeste 20 Norte 1 -- -- 87
2020-03-23 20:00:00 11.5 6 Nordeste 23 Nordeste 2.7 -- -- 86
2020-03-23 19:00:00 13 4 Norte 25 Norte 0 -- -- 71
2020-03-23 18:00:00 14 7 Nordeste 31 Nordeste 0 -- -- 64
2020-03-23 17:00:00 15 6 Nordeste 24 Norte 0 -- -- 60
2020-03-23 16:00:00 15.5 3 Este 18 Este 0 -- -- 63
2020-03-23 15:00:00 14.3 6 Norte 24 Nordeste 0 -- -- 73
2020-03-23 14:00:00 16.6 4 Este 19 Norte 0 -- -- 58
2020-03-23 13:00:00 16.6 4 Norte 15 Norte 0 -- -- 67
2020-03-23 12:00:00 12.5 6 Norte 19 Norte 1.4 -- -- 87
2020-03-23 11:00:00 12.6 9 Norte 20 Norte 0 -- -- 83
2020-03-23 10:00:00 12.4 5 Norte 16 Norte 0 -- -- 87
2020-03-23 09:00:00 12 5 Norte 14 Norte 1 -- -- 90
2020-03-23 08:00:00 11.9 4 Norte 18 Norte 6.2 -- -- 91
2020-03-23 07:00:00 11.8 8 Norte 14 Norte 3.2 -- -- 91
2020-03-23 06:00:00 11.6 5 Norte 10 Norte 2.9 -- -- 90
2020-03-23 05:00:00 11.9 5 Norte 12 Norte 0 -- -- 90
2020-03-23 04:00:00 11.8 7 Norte 14 Nordeste 1.3 -- -- 90
2020-03-23 03:00:00 12 6 Norte 13 Norte 1.4 -- -- 90
2020-03-23 02:00:00 12.1 4 Norte 10 Norte 0.2 -- -- 90
2020-03-23 01:00:00 12.3 4 Norte 10 Norte 0.1 -- -- 90
2020-03-23 00:00:00 12.2 3 Norte 8 Norte 0.5 -- -- 91
2020-03-22 23:00:00 12.7 0 Calma 8 Nordeste 0.2 -- -- 87
2020-03-22 22:00:00 12.6 3 Norte 8 Nordeste 0.3 -- -- 86
2020-03-22 21:00:00 13.2 2 Nordeste 10 Nordeste 0 -- -- 77
2020-03-22 20:00:00 12.9 3 Norte 9 Nordeste 0 -- -- 80
2020-03-22 19:00:00 13.4 3 Nordeste 16 Sudeste 0 -- -- 78
2020-03-22 18:00:00 13.9 0 Calma 21 Este 0 -- -- 78
2020-03-22 17:00:00 14.9 5 Sudeste 22 Sudeste 0 -- -- 68
2020-03-22 16:00:00 16.6 3 Sudeste 21 Nordeste 0 -- -- 58
2020-03-22 15:00:00 17.3 4 Sudeste 24 Este 0 -- -- 55
2020-03-22 14:00:00 17.1 5 Sudeste 21 Este 0 -- -- 55
2020-03-22 13:00:00 17 6 Sudeste 19 Sudeste 0 -- -- 57
2020-03-22 12:00:00 17 4 Sudeste 20 Nordeste 0 -- -- 56
2020-03-22 11:00:00 18.2 5 Sudeste 18 Sudeste 0 -- -- 54
2020-03-22 10:00:00 16.4 2 Este 16 Este 0 -- -- 56
2020-03-22 09:00:00 15 2 Nordeste 11 Norte 0 -- -- 68
2020-03-22 08:00:00 10.9 6 Norte 14 Norte 0 -- -- 87
2020-03-22 07:00:00 9.8 6 Norte 12 Norte 0 -- -- 90
2020-03-22 06:00:00 10 6 Norte 10 Norte 0 -- -- 90
2020-03-22 05:00:00 10.9 3 Norte 9 Norte 0 -- -- 90
2020-03-22 04:00:00 12 0 Calma 6 Noroeste 0 -- -- 88
2020-03-22 03:00:00 12.1 3 Norte 9 Norte 0 -- -- 88
2020-03-22 02:00:00 11.6 5 Norte 9 Norte 0 -- -- 89
2020-03-22 01:00:00 11.8 4 Norte 8 Noroeste 0 -- -- 90
2020-03-22 00:00:00 11.6 3 Norte 7 Norte 0 -- -- 89
2020-03-21 23:00:00 11.9 3 Norte 8 Norte 0 -- -- 88
2020-03-21 22:00:00 13 3 Nordeste 7 Norte 0 -- -- 83
2020-03-21 21:00:00 13.2 3 Norte 7 Norte 0 -- -- 83
2020-03-21 20:00:00 12.9 3 Nordeste 10 Nordeste 0 -- -- 83
2020-03-21 19:00:00 13.3 0 Calma 9 Este 0 -- -- 81
2020-03-21 18:00:00 14.6 4 Este 14 Sudeste 0 -- -- 73
2020-03-21 17:00:00 16.1 2 Sudeste 17 Este 0 -- -- 64
2020-03-21 16:00:00 16 5 Sudeste 20 Sudeste 0 -- -- 60
2020-03-21 15:00:00 16.7 6 Sudeste 26 Nordeste 0 -- -- 54
2020-03-21 14:00:00 16.6 7 Sudeste 23 Sur 0 -- -- 50
2020-03-21 13:00:00 18.7 6 Sudeste 20 Nordeste 0 -- -- 42
2020-03-21 12:00:00 18.7 4 Sudeste 17 Este 0 -- -- 42
2020-03-21 11:00:00 16.8 3 Este 14 Este 0 -- -- 44
2020-03-21 10:00:00 16.1 4 Este 13 Este 0 -- -- 46
2020-03-21 09:00:00 14 4 Norte 13 Norte 0 -- -- 59
2020-03-21 08:00:00 9.3 6 Norte 13 Norte 0 -- -- 77
2020-03-21 07:00:00 8.3 6 Norte 12 Norte 0 -- -- 83
2020-03-21 06:00:00 8.6 7 Norte 13 Norte 0 -- -- 80
2020-03-21 05:00:00 8.6 6 Norte 15 Norte 0 -- -- 78
2020-03-21 04:00:00 7.7 8 Norte 12 Norte 0 -- -- 71
2020-03-21 03:00:00 7.4 5 Norte 10 Norte 0 -- -- 69
2020-03-21 02:00:00 7.8 4 Norte 15 Norte 0 -- -- 67
2020-03-21 01:00:00 8.2 8 Norte 14 Noroeste 0 -- -- 64
2020-03-21 00:00:00 8.3 7 Norte 15 Norte 0 -- -- 66
2020-03-20 23:00:00 8.1 2 Norte 15 Norte 0 -- -- 70
2020-03-20 22:00:00 8.9 7 Norte 14 Norte 0 -- -- 74
2020-03-20 21:00:00 9.8 9 Norte 16 Norte 0 -- -- 84
2020-03-20 20:00:00 10.6 5 Norte 10 Norte 0 -- -- 85
2020-03-20 19:00:00 12.1 2 Noroeste 5 Sudoeste 0 -- -- 76
2020-03-20 18:00:00 13.8 2 Este 11 Sudeste 0 -- -- 68
2020-03-20 17:00:00 15.2 3 Sudeste 14 Sudeste 0 -- -- 67
2020-03-20 16:00:00 15.2 5 Sudeste 18 Este 0 -- -- 64
2020-03-20 15:00:00 16.7 6 Sudeste 18 Sudeste 0 -- -- 56
2020-03-20 14:00:00 15.3 6 Sudeste 21 Nordeste 0 -- -- 57
2020-03-20 13:00:00 18.1 6 Sudeste 15 Sudeste 0 -- -- 43
2020-03-20 12:00:00 16.6 3 Sudeste 18 Nordeste 0 -- -- 43
2020-03-20 11:00:00 16.6 4 Este 13 Sur 0 -- -- 48
2020-03-20 10:00:00 16.3 3 Sudeste 10 Sudeste 0 -- -- 53
2020-03-20 09:00:00 14 0 Calma 9 Norte 0 -- -- 67
2020-03-20 08:00:00 8.8 4 Norte 15 Norte 0 -- -- 83
2020-03-20 07:00:00 7.3 6 Norte 13 Norte 0 -- -- 87
2020-03-20 06:00:00 7.1 5 Norte 12 Norte 0 -- -- 87
2020-03-20 05:00:00 7.1 4 Norte 14 Norte 0 -- -- 83
2020-03-20 04:00:00 8 6 Noroeste 13 Norte 0 -- -- 87
2020-03-20 03:00:00 8.6 6 Norte 14 Norte 0 -- -- 90
2020-03-20 02:00:00 9.2 3 Oeste 9 Norte 0 -- -- 91
2020-03-20 01:00:00 8.7 5 Norte 11 Norte 0 -- -- 88
2020-03-20 00:00:00 8 4 Norte 10 Norte 0 -- -- 88
2020-03-19 23:00:00 8.3 5 Norte 14 Norte 0 -- -- 87
2020-03-19 22:00:00 8.6 7 Norte 14 Norte 0 -- -- 87
2020-03-19 21:00:00 9.6 3 Noroeste 10 Norte 0 -- -- 87
2020-03-19 20:00:00 10.1 3 Noroeste 8 Norte 0 -- -- 86
2020-03-19 19:00:00 11.4 2 Norte 5 Este 0 -- -- 78
2020-03-19 18:00:00 12.8 2 Sudeste 10 Sudeste 0 -- -- 68
2020-03-19 17:00:00 15 2 Sudeste 12 Sudeste 0 -- -- 55
2020-03-19 16:00:00 15.9 4 Sudeste 13 Sudeste 0 -- -- 54
2020-03-19 15:00:00 15.6 6 Sur 15 Sudeste 0 -- -- 56
2020-03-19 14:00:00 15.8 4 Sudeste 15 Sudeste 0 -- -- 56
2020-03-19 13:00:00 15.1 4 Sudeste 13 Nordeste 0 -- -- 61
2020-03-19 12:00:00 16.3 5 Sudeste 14 Sudeste 0 -- -- 59
2020-03-19 11:00:00 16.2 5 Sudeste 10 Sur 0 -- -- 55
2020-03-19 10:00:00 15.2 5 Sur 10 Sur 0 -- -- 57
2020-03-19 09:00:00 14.1 0 Calma 8 Norte 0 -- -- 74
2020-03-19 08:00:00 8.6 4 Norte 10 Norte 0 -- -- 89
2020-03-19 07:00:00 8 4 Norte 9 Norte 0 -- -- 84
2020-03-19 06:00:00 8.3 5 Norte 10 Norte 0 -- -- 85
2020-03-19 05:00:00 8.3 5 Norte 10 Norte 0 -- -- 82
2020-03-19 04:00:00 8 5 Norte 10 Norte 0 -- -- 86
2020-03-19 03:00:00 8.5 4 Norte 10 Norte 0 -- -- 83
2020-03-19 02:00:00 8.4 6 Norte 9 Norte 0 -- -- 80
2020-03-19 01:00:00 8.9 5 Norte 8 Norte 0 -- -- 77
2020-03-19 00:00:00 9.1 5 Norte 8 Norte 0 -- -- 80
2020-03-18 23:00:00 9.3 4 Norte 7 Norte 0 -- -- 73
2020-03-18 22:00:00 9.5 3 Norte 8 Norte 0 -- -- 68
2020-03-18 21:00:00 10 3 Norte 9 Sudoeste 0 -- -- 67
2020-03-18 20:00:00 11.1 3 Noroeste 7 Noroeste 0 -- -- 74
2020-03-18 19:00:00 12.4 0 Calma 4 Sur 0 -- -- 83
2020-03-18 18:00:00 14.2 0 Calma 6 Sur 0 -- -- 71
2020-03-18 17:00:00 16.9 2 Sudeste 7 Sur 0 -- -- 47
2020-03-18 16:00:00 15.9 2 Este 10 Sur 0 -- -- 59
2020-03-18 15:00:00 16.9 2 Sudeste 8 Sur 0 -- -- 58
2020-03-18 14:00:00 15.2 4 Sur 11 Sur 0 -- -- 59
2020-03-18 13:00:00 17.2 5 Sudeste 14 Sur 0 -- -- 50
2020-03-18 12:00:00 18 4 Sudeste 11 Sudeste 0 -- -- 47
2020-03-18 11:00:00 15.3 0 Calma 6 Sur 0 -- -- 50
2020-03-18 10:00:00 14.6 0 Calma 4 Sudoeste 0 -- -- 56
2020-03-18 09:00:00 12.7 0 Calma 4 Norte 0 -- -- 69
2020-03-18 08:00:00 10.4 2 Norte 6 Norte 0 -- -- 68
2020-03-18 07:00:00 9.6 3 Noroeste 6 Sudoeste 0 -- -- 72
2020-03-18 06:00:00 10 0 Calma 12 Norte 0 -- -- 66
2020-03-18 05:00:00 11.3 7 Norte 12 Norte 0 -- -- 59
2020-03-18 04:00:00 9.8 0 Calma 4 Sudoeste 0 -- -- 77
2020-03-18 03:00:00 10.1 0 Calma 6 Sudoeste 0 -- -- 87
2020-03-18 02:00:00 10.9 3 Sur 7 Sur 0 -- -- 87
2020-03-18 01:00:00 11 2 Sur 6 Sudoeste 0 -- -- 86
2020-03-18 00:00:00 11.3 0 Calma 6 Sur 0 -- -- 81
2020-03-17 23:00:00 11 0 Calma 6 Sudeste 0 -- -- 78
2020-03-17 22:00:00 11.2 0 Calma 9 Norte 0 -- -- 74
2020-03-17 21:00:00 12.8 8 Norte 13 Norte 0 -- -- 61
2020-03-17 20:00:00 13.1 6 Norte 10 Norte 0 -- -- 64
2020-03-17 19:00:00 13.9 3 Norte 13 Nordeste 0 -- -- 63
2020-03-17 18:00:00 15.6 5 Norte 14 Norte 0 -- -- 53
2020-03-17 17:00:00 16.2 4 Norte 15 Norte 0 -- -- 52
2020-03-17 16:00:00 16.1 4 Nordeste 15 Norte 0 -- -- 52
2020-03-17 15:00:00 16.3 3 Nordeste 25 Nordeste 0 -- -- 56
2020-03-17 14:00:00 15.7 10 Nordeste 26 Norte 0 -- -- 56
2020-03-17 13:00:00 15.6 11 Norte 30 Nordeste 0 -- -- 61
2020-03-17 12:00:00 15 10 Norte 30 Norte 0 -- -- 67
2020-03-17 11:00:00 14.4 9 Norte 30 Norte 0 -- -- 70
2020-03-17 10:00:00 13.9 7 Nordeste 31 Norte 0 -- -- 73
2020-03-17 09:00:00 13.6 11 Norte 29 Norte 0 -- -- 71
2020-03-17 08:00:00 13.5 15 Norte 32 Norte 0 -- -- 70
2020-03-17 07:00:00 13.4 12 Norte 28 Nordeste 0 -- -- 70
2020-03-17 06:00:00 13.5 13 Norte 34 Norte 0 -- -- 69
2020-03-17 05:00:00 13.4 12 Norte 39 Norte 0 -- -- 69
2020-03-17 04:00:00 13.4 14 Norte 33 Nordeste 0 -- -- 69
2020-03-17 03:00:00 13.2 13 Norte 35 Norte 0 -- -- 70
2020-03-17 02:00:00 13.2 13 Norte 32 Norte 0 -- -- 69
2020-03-17 01:00:00 13 12 Norte 35 Norte 0 -- -- 70
2020-03-17 00:00:00 12.9 17 Norte 35 Norte 0 -- -- 71
2020-03-16 23:00:00 13.2 13 Norte 35 Norte 0 -- -- 72
2020-03-16 22:00:00 12.9 10 Nordeste 30 Nordeste 0 -- -- 77
2020-03-16 21:00:00 13.2 8 Norte 28 Nordeste 0 -- -- 75
2020-03-16 20:00:00 12.8 11 Norte 35 Nordeste 0 -- -- 80
2020-03-16 19:00:00 12.5 4 Nordeste 23 Nordeste 1.3 -- -- 89
2020-03-16 18:00:00 12.8 5 Norte 22 Este 0.1 -- -- 88
2020-03-16 17:00:00 12.8 7 Norte 32 Nordeste 0 -- -- 88
2020-03-16 16:00:00 12.6 4 Nordeste 27 Nordeste 0.5 -- -- 91
2020-03-16 15:00:00 12.4 3 Norte 25 Este 3.1 -- -- 91
2020-03-16 14:00:00 12.5 3 Nordeste 34 Sudeste 5.9 -- -- 91
2020-03-16 13:00:00 12.9 3 Este 30 Sudeste 1.6 -- -- 90
2020-03-16 12:00:00 13.2 4 Nordeste 26 Este 0.7 -- -- 88
2020-03-16 11:00:00 13.5 4 Nordeste 17 Este 0.1 -- -- 84
2020-03-16 10:00:00 13.7 3 Nordeste 21 Norte 0 -- -- 72
2020-03-16 09:00:00 13.3 5 Norte 21 Norte 0 -- -- 72
2020-03-16 08:00:00 12.8 5 Norte 21 Este 0 -- -- 73
2020-03-16 07:00:00 12.3 5 Nordeste 16 Norte 0 -- -- 74
2020-03-16 06:00:00 11.5 6 Norte 15 Norte 0 -- -- 78
2020-03-16 05:00:00 12 4 Norte 11 Norte 0 -- -- 81
2020-03-16 04:00:00 12.2 4 Nordeste 8 Norte 0 -- -- 79
2020-03-16 03:00:00 12.9 0 Calma 6 Sudeste 0 -- -- 77
2020-03-16 02:00:00 13.1 0 Calma 8 Sudeste 0 -- -- 78
2020-03-16 01:00:00 13 2 Sudeste 8 Sudeste 0 -- -- 81
2020-03-16 00:00:00 13 0 Calma 9 Este 0 -- -- 81
2020-03-15 23:00:00 13.2 4 Sur 9 Este 0 -- -- 85
2020-03-15 22:00:00 13 0 Calma 6 Sur 0 -- -- 87
2020-03-15 21:00:00 12.9 2 Sur 6 Sur 0 -- -- 87
2020-03-15 20:00:00 12.9 3 Sur 12 Sur 0 -- -- 86
2020-03-15 19:00:00 13.5 6 Sur 17 Sur 0 -- -- 80
2020-03-15 18:00:00 13.9 6 Sur 19 Sur 0 -- -- 78
2020-03-15 17:00:00 14.3 9 Sur 22 Sur 0 -- -- 74
2020-03-15 16:00:00 15.1 8 Sur 23 Sur 0 -- -- 70
2020-03-15 15:00:00 15.3 9 Sur 24 Sudoeste 0 -- -- 68
2020-03-15 14:00:00 15.5 8 Sudoeste 22 Sur 0 -- -- 65
2020-03-15 13:00:00 18 8 Sur 21 Sudeste 0 -- -- 56
2020-03-15 12:00:00 16.2 7 Sudoeste 18 Sudoeste 0 -- -- 62
2020-03-15 11:00:00 16 7 Sur 15 Sudoeste 0 -- -- 57
2020-03-15 10:00:00 13.6 7 Sur 14 Sur 0 -- -- 71
2020-03-15 09:00:00 13.8 0 Calma 9 Norte 0 -- -- 78
2020-03-15 08:00:00 9.8 4 Norte 9 Norte 0 -- -- 90
2020-03-15 07:00:00 9.2 3 Noroeste 8 Norte 0 -- -- 90
2020-03-15 06:00:00 10.1 0 Calma 6 Norte 0 -- -- 89
2020-03-15 05:00:00 11.2 4 Norte 8 Norte 0 -- -- 87
2020-03-15 04:00:00 10.9 3 Norte 6 Norte 0 -- -- 90
2020-03-15 03:00:00 11.1 3 Oeste 5 Norte 0 -- -- 89
2020-03-15 02:00:00 11.2 3 Norte 7 Norte 0 -- -- 90
2020-03-15 01:00:00 10.4 4 Norte 7 Norte 0 -- -- 90
2020-03-15 00:00:00 10.8 3 Norte 8 Norte 0 -- -- 88
2020-03-14 23:00:00 11.4 4 Norte 8 Norte 0 -- -- 88
2020-03-14 22:00:00 11.4 0 Calma 5 Noroeste 0 -- -- 89
2020-03-14 21:00:00 11.5 0 Calma 5 Norte 0 -- -- 88
2020-03-14 20:00:00 12 0 Calma 4 Sudoeste 0 -- -- 84
2020-03-14 19:00:00 13.2 0 Calma 5 Norte 0 -- -- 79
2020-03-14 18:00:00 13.3 0 Calma 6 Este 0 -- -- 75
2020-03-14 17:00:00 13.5 0 Calma 6 Nordeste 0 -- -- 74
2020-03-14 16:00:00 13.8 0 Calma 7 Este 0 -- -- 73
2020-03-14 15:00:00 14 0 Calma 6 Sudeste 0 -- -- 71
2020-03-14 14:00:00 13.7 0 Calma 5 Sudeste 0 -- -- 71
2020-03-14 13:00:00 13.8 0 Calma 10 Sudeste 0 -- -- 74
2020-03-14 12:00:00 13.8 2 Sudeste 9 Sur 0 -- -- 80
2020-03-14 11:00:00 14.2 0 Calma 10 Sudeste 0 -- -- 73
2020-03-14 10:00:00 14.2 3 Sudeste 10 Sudeste 0 -- -- 74
2020-03-14 09:00:00 13.9 0 Calma 3 Noroeste 0 -- -- 74
2020-03-14 08:00:00 12.8 0 Calma 9 Norte 0 -- -- 75
2020-03-14 07:00:00 12.5 4 Norte 8 Nordeste 0 -- -- 77
2020-03-14 06:00:00 12.3 2 Norte 5 Noroeste 0 -- -- 80
2020-03-14 05:00:00 12.6 3 Norte 4 Noroeste 0 -- -- 79
2020-03-14 04:00:00 -- 0 Calma 2 Norte 0 -- -- --
2020-03-14 03:00:00 12.1 0 Calma 11 Norte 0 -- -- 78
2020-03-14 02:00:00 12.2 6 Norte 11 Norte 0 -- -- 79
2020-03-14 01:00:00 11.2 5 Norte 10 Norte 0 -- -- 88
2020-03-14 00:00:00 12 4 Norte 8 Norte 0 -- -- 86
2020-03-13 23:00:00 13.3 2 Norte 6 Sur 0 -- -- 84
2020-03-13 22:00:00 13.6 4 Sur 8 Sur 0 -- -- 85
2020-03-13 21:00:00 13.9 0 Calma 9 Sur 0 -- -- 82
2020-03-13 20:00:00 13.8 4 Sur 11 Sudoeste 0 -- -- 80
2020-03-13 19:00:00 14 4 Oeste 12 Sur 0 -- -- 78
2020-03-13 18:00:00 14.4 4 Sudoeste 14 Sur 0 -- -- 78
2020-03-13 17:00:00 14.4 6 Sur 14 Sudoeste 0 -- -- 77
2020-03-13 16:00:00 15.4 6 Sur 16 Sur 0 -- -- 69
2020-03-13 15:00:00 16.3 7 Sur 18 Sur 0 -- -- 67
2020-03-13 14:00:00 17.2 6 Sur 15 Sur 0 -- -- 61
2020-03-13 13:00:00 15.7 9 Sur 24 Sur 0 -- -- 64
2020-03-13 12:00:00 17.1 8 Sur 21 Sudoeste 0 -- -- 51
2020-03-13 11:00:00 17.9 5 Sur 12 Sur 0 -- -- 53
2020-03-13 10:00:00 15.3 2 Sudeste 5 Sudeste 0 -- -- 70
2020-03-13 09:00:00 12.8 0 Calma 5 Noroeste 0 -- -- 90
2020-03-13 08:00:00 11.1 3 Norte 9 Noroeste 0 -- -- 91
2020-03-13 07:00:00 10.1 0 Calma 6 Oeste 0 -- -- 90
2020-03-13 06:00:00 11.4 2 Oeste 8 Sudoeste 0 -- -- 90
2020-03-13 05:00:00 10 0 Calma 4 Sudoeste 0 -- -- 89
2020-03-13 04:00:00 10 0 Calma 4 Noroeste 0 -- -- 88
2020-03-13 03:00:00 11.4 4 Norte 8 Norte 0 -- -- 83
2020-03-13 02:00:00 11.6 3 Norte 13 Nordeste 0 -- -- 83
2020-03-13 01:00:00 12.2 4 Norte 10 Noroeste 0 -- -- 83
2020-03-13 00:00:00 10.6 0 Calma 5 Noroeste 0 -- -- 90
2020-03-12 23:00:00 10.7 3 Norte 6 Norte 0 -- -- 90
2020-03-12 22:00:00 12 2 Norte 6 Sudoeste 0 -- -- 90
2020-03-12 21:00:00 12.1 2 Oeste 6 Sudeste 0 -- -- 91
2020-03-12 20:00:00 12.5 0 Calma 6 Este 0 -- -- 91
2020-03-12 19:00:00 12.9 3 Sur 6 Sur 0 -- -- 89
2020-03-12 18:00:00 13.8 2 Sudeste 9 Sudeste 0 -- -- 84
2020-03-12 17:00:00 15.2 6 Sur 19 Sur 0 -- -- 75
2020-03-12 16:00:00 15.6 7 Sur 14 Sur 0 -- -- 72
2020-03-12 15:00:00 17.5 4 Sudeste 15 Nordeste 0 -- -- 60
2020-03-12 14:00:00 18.8 4 Este 14 Nordeste 0 -- -- 55
2020-03-12 13:00:00 17.8 6 Sur 15 Sur 0 -- -- 62
2020-03-12 12:00:00 17.8 6 Sur 13 Sur 0 -- -- 53
2020-03-12 11:00:00 17.5 5 Sur 10 Sur 0 -- -- 56
2020-03-12 10:00:00 16.9 3 Sudeste 7 Sudeste 0 -- -- 58
2020-03-12 09:00:00 14.5 0 Calma 5 Norte 0 -- -- 76
2020-03-12 08:00:00 10.4 0 Calma 5 Norte 0 -- -- 89
2020-03-12 07:00:00 9.6 2 Norte 8 Norte 0 -- -- 88
2020-03-12 06:00:00 9.4 2 Norte 8 Norte 0 -- -- 85
2020-03-12 05:00:00 10 4 Norte 9 Norte 0 -- -- 79
2020-03-12 04:00:00 10.4 3 Nordeste 12 Noroeste 0 -- -- 80
2020-03-12 03:00:00 9.6 3 Nordeste 8 Nordeste 0 -- -- 91
2020-03-12 02:00:00 9.5 0 Calma 6 Norte 0 -- -- 91
2020-03-12 01:00:00 9.6 0 Calma 6 Norte 0 -- -- 91
2020-03-12 00:00:00 9.9 3 Norte 5 Norte 0 -- -- 91
2020-03-11 23:00:00 10 2 Norte 7 Norte 0 -- -- 90
2020-03-11 22:00:00 10.6 2 Norte 6 Norte 0 -- -- 90
2020-03-11 21:00:00 11 0 Calma 5 Norte 0 -- -- 90
2020-03-11 20:00:00 11.8 3 Sudoeste 6 Sur 0 -- -- 88
2020-03-11 19:00:00 12.8 0 Calma 6 Sur 0 -- -- 85
2020-03-11 18:00:00 13.9 4 Sur 12 Sur 0 -- -- 79
2020-03-11 17:00:00 15.3 6 Sur 14 Sur 0 -- -- 69
2020-03-11 16:00:00 16.2 7 Sur 16 Sur 0 -- -- 66
2020-03-11 15:00:00 17.5 5 Sur 14 Sur 0 -- -- 59
2020-03-11 14:00:00 16.8 7 Sur 14 Sudeste 0 -- -- 61
2020-03-11 13:00:00 18 4 Sudeste 12 Sudeste 0 -- -- 51
2020-03-11 12:00:00 17.2 4 Sudeste 11 Sudeste 0 -- -- 57
2020-03-11 11:00:00 16.6 3 Sudeste 11 Sudeste 0 -- -- 58
2020-03-11 10:00:00 16.5 3 Sudeste 10 Sur 0 -- -- 57
2020-03-11 09:00:00 14.3 0 Calma 4 Este 0 -- -- 69
2020-03-11 08:00:00 8.8 0 Calma 6 Norte 0 -- -- 88
2020-03-11 07:00:00 8.1 4 Norte 6 Norte 0 -- -- 88
2020-03-11 06:00:00 8.6 3 Norte 10 Norte 0 -- -- 84
2020-03-11 05:00:00 9.7 7 Norte 17 Nordeste 0 -- -- 79
2020-03-11 04:00:00 9.2 8 Norte 12 Norte 0 -- -- 81
2020-03-11 03:00:00 9.2 4 Norte 6 Nordeste 0 -- -- 81
2020-03-11 02:00:00 10.2 2 Norte 15 Sudoeste 0 -- -- 73
2020-03-11 01:00:00 11.3 7 Noroeste 13 Noroeste 0 -- -- 71
2020-03-11 00:00:00 9.7 0 Calma 6 Noroeste 0 -- -- 79
2020-03-10 23:00:00 9.8 0 Calma 8 Norte 0 -- -- 78
2020-03-10 22:00:00 10 0 Calma 6 Norte 0 -- -- 78
2020-03-10 21:00:00 10.4 0 Calma 5 Sudoeste 0 -- -- 80
2020-03-10 20:00:00 11.4 3 Norte 9 Oeste 0 -- -- 78
2020-03-10 19:00:00 12.3 0 Calma 7 Sudoeste 0 -- -- 71
2020-03-10 18:00:00 13.8 4 Sudoeste 14 Sur 0 -- -- 63
2020-03-10 17:00:00 14.1 7 Sur 20 Sur 0 -- -- 65
2020-03-10 16:00:00 14.4 8 Sudoeste 20 Sur 0 -- -- 55
2020-03-10 15:00:00 14.4 10 Sudoeste 25 Sudoeste 0 -- -- 47
2020-03-10 14:00:00 13.9 11 Sur 30 Sur 0 -- -- 49
2020-03-10 13:00:00 15.2 12 Sur 29 Sur 0 -- -- 46
2020-03-10 12:00:00 16.1 12 Sur 26 Sur 0 -- -- 44
2020-03-10 11:00:00 14.9 9 Sudoeste 18 Sudoeste 0 -- -- 44
2020-03-10 10:00:00 15 3 Sudeste 9 Sur 0 -- -- 55
2020-03-10 09:00:00 11.2 4 Norte 9 Norte 0 -- -- 65
2020-03-10 08:00:00 8.9 5 Norte 14 Norte 0 -- -- 71
2020-03-10 07:00:00 8.4 7 Norte 14 Norte 0 -- -- 75
2020-03-10 06:00:00 9.8 3 Oeste 15 Sudoeste 0 -- -- 68
2020-03-10 05:00:00 9.9 5 Oeste 14 Sudoeste 0 -- -- 77
2020-03-10 04:00:00 9.3 7 Sudoeste 12 Sudoeste 0 -- -- 80
2020-03-10 03:00:00 8.6 4 Norte 12 Sudoeste 0 -- -- 80
2020-03-10 02:00:00 11 9 Sudoeste 15 Sudoeste 0 -- -- 69
2020-03-10 01:00:00 10.9 5 Oeste 14 Sudoeste 0 -- -- 65
2020-03-10 00:00:00 10.1 6 Sudoeste 12 Noroeste 0 -- -- 71